• Join FlightAware (Why Join?)
  • Login
  • US Flag 
09:07PM EST


 

Airport Tracker/Info


-or-


 

Live Flight TrackerFlight Track Log ✈ N499RC ✈ 02-May-2013 ✈ KPGD - KDPA

Flight Track Log - Related Links

Times and Time Zones

All times are in EDT time to prevent confusion due to time zone crossing. See the N499RC flight status page for this flight to view local times or setup timezone preferences in your user account.

Time Position Orientation Groundspeed Altitude Reporting Facility
EDT Latitude Longitude Course Direction KTS MPH feet Rate Location/Type
04:07PM 27.0222 -81.9697 336° Northwest 215 247 2,600  Level Miami Center
04:08PM 27.0869 -81.9725 358° North 227 261 4,700 2,040 Climbing Miami Center
04:09PM 27.1453 -81.9750 358° North 217 250 6,700 1,920 Climbing Miami Center
04:10PM 27.2036 -81.9753 360° North 212 244 8,600 1,800 Climbing Miami Center
04:11PM 27.2642 -81.9781 358° North 212 244 10,300 1,680 Climbing Miami Center
04:12PM 27.4866 -81.9183 336° Northwest  Level FlightAware Approximate
04:12PM 27.3286 -81.9831 356° North 217 250 12,000  Level Miami Center
04:13PM 27.3886 -81.9975 348° North 217 250 13,700 1,440 Climbing Miami Center
04:14PM 27.4436 -82.0350 329° Northwest 217 250 14,900 960 Climbing Miami Center
04:15PM 27.5086 -82.0847 326° Northwest 237 273 15,700 600 Climbing Miami Center
04:16PM 27.5831 -82.1044 347° North 271 312 16,200 780 Climbing Miami Center
04:17PM 27.6742 -82.1253 349° North 296 341 17,300 960 Climbing Miami Center
04:19PM 27.8578 -82.1719 347° North 295 339 19,300 840 Climbing Jacksonville Center
04:20PM 27.9353 -82.1878 350° North 301 346 20,000 780 Climbing Jacksonville Center
04:21PM 28.0250 -82.2108 347° North 307 353 20,900 840 Climbing Jacksonville Center
04:22PM 28.1128 -82.2289 350° North 314 361 21,700 780 Climbing Jacksonville Center
04:23PM 28.2047 -82.2494 349° North 319 367 22,500 840 Climbing Jacksonville Center
04:24PM 28.2967 -82.2750 346° North 324 373 23,400 780 Climbing Jacksonville Center
04:25PM 28.3844 -82.3169 337° Northwest 330 380 24,100 660 Climbing Jacksonville Center
04:26PM 28.4661 -82.3683 331° Northwest 330 380 24,800 660 Climbing Jacksonville Center
04:27PM 28.5519 -82.4200 332° Northwest 335 386 25,500 720 Climbing Jacksonville Center
04:28PM 28.6375 -82.4692 333° Northwest 340 391 26,300 840 Climbing Jacksonville Center
04:29PM 28.7317 -82.5256 332° Northwest 345 397 27,200 780 Climbing Jacksonville Center
04:30PM 28.8172 -82.5750 333° Northwest 347 399 27,900 600 Climbing Jacksonville Center
04:31PM 28.9050 -82.6222 335° Northwest 347 399 28,500 540 Climbing Jacksonville Center
04:32PM 28.9867 -82.6622 337° Northwest 347 399 29,000 480 Climbing Jacksonville Center
04:33PM 29.0744 -82.7167 332° Northwest 347 399 29,500 480 Climbing Jacksonville Center
04:34PM 29.1619 -82.7689 332° Northwest 347 399 30,000 600 Climbing Jacksonville Center
04:35PM 29.2519 -82.8258 331° Northwest 352 405 30,800 720 Climbing Jacksonville Center
04:36PM 29.3353 -82.8831 329° Northwest 357 411 31,500 600 Climbing Jacksonville Center
04:37PM 29.4189 -82.9428 328° Northwest 357 411 32,100 600 Climbing Jacksonville Center
04:38PM 29.5192 -83.0119 329° Northwest 376 433 32,700 600 Climbing Jacksonville Center
04:39PM 29.6025 -83.0694 329° Northwest 361 415 33,400 480 Climbing Jacksonville Center
04:41PM 29.7604 -83.1256 344° North  Level FlightAware Approximate
04:44PM 30.0822 -83.2358 345° North 362 417 35,700  Level Jacksonville Center
04:45PM 30.1825 -83.2650 343° North 362 417 36,000 300 Climbing Jacksonville Center
04:46PM 30.2408 -83.2871 344° North  Level FlightAware Approximate
04:46PM 30.2825 -83.2919 347° North 362 417 36,400  Level Jacksonville Center
04:47PM 30.3828 -83.3211 346° North 367 422 36,800 360 Climbing Jacksonville Center
04:48PM 30.4249 -83.3465 345° North  Level FlightAware Approximate
04:48PM 30.4869 -83.3531 345° North 362 417 37,200  Level Jacksonville Center
04:49PM 30.5202 -83.3768 345° North  Level FlightAware Approximate
04:49PM 30.5892 -83.3825 346° North 362 417 37,400  Level Jacksonville Center
04:50PM 30.6892 -83.4119 346° North 362 417 37,700 300 Climbing Jacksonville Center
04:51PM 30.7872 -83.4464 343° North 362 417 38,000 120 Climbing Jacksonville Center
04:52PM 30.8853 -83.4808 343° North 362 417 38,000  Level Jacksonville Center
04:53PM 30.8566 -83.4887 343° North  Level FlightAware Approximate
04:53PM 30.9853 -83.5153 344° North 362 417 38,000  Level Jacksonville Center
04:54PM 31.0853 -83.5475 345° North 362 417 38,000  Level Jacksonville Center
04:55PM 31.1917 -83.5847 343° North 368 423 38,000  Level Jacksonville Center
04:57PM 31.4164 -83.6617 344° North 378 435 38,000  Level Atlanta Center
04:58PM 31.5167 -83.6978 343° North 372 428 38,000  Level Atlanta Center
04:59PM 31.6211 -83.7317 345° North 367 422 38,000  Level Atlanta Center
05:00PM 31.7214 -83.7728 341° North 367 422 38,000  Level Atlanta Center
05:01PM 31.8425 -83.8164 343° North 390 449 38,000  Level Atlanta Center
05:02PM 31.9447 -83.8481 345° North 395 455 38,000  Level Atlanta Center
05:03PM 32.0450 -83.8819 344° North 385 443 38,000  Level Atlanta Center
05:04PM 32.1472 -83.9114 346° North 379 436 38,000  Level Atlanta Center
05:05PM 32.2475 -83.9456 344° North 379 436 38,000  Level Atlanta Center
05:06PM 32.3497 -83.9775 345° North 379 436 38,000  Level Atlanta Center
05:07PM 32.4478 -84.0117 344° North 374 430 38,000  Level Atlanta Center
05:08PM 32.5481 -84.0389 347° North 374 430 38,000  Level Atlanta Center
05:09PM 32.6483 -84.0758 343° North 374 430 38,000  Level Atlanta Center
05:10PM 32.7506 -84.1081 345° North 374 430 38,000  Level Atlanta Center
05:11PM 32.8486 -84.1403 345° North 374 430 38,000  Level Atlanta Center
05:12PM 32.9489 -84.1725 345° North 374 430 38,000  Level Atlanta Center
05:13PM 33.0489 -84.2025 346° North 374 430 38,000  Level Atlanta Center
05:14PM 33.1367 -84.2347 343° North 362 417 38,000  Level Atlanta Center
05:15PM 33.2325 -84.2697 343° North 362 417 38,000  Level Atlanta Center
05:16PM 33.3328 -84.2925 349° North 362 417 38,000  Level Atlanta Center
05:17PM 33.4433 -84.3103 352° North 362 417 38,000  Level Atlanta Center
05:18PM 33.5414 -84.3478 342° North 362 417 38,000  Level Atlanta Center
05:19PM 33.6350 -84.3906 339° North 362 417 38,000  Level Atlanta Center
05:20PM 33.7372 -84.4286 343° North 369 425 38,000  Level Atlanta Center
05:21PM 33.8289 -84.4639 342° North 364 419 38,000  Level Atlanta Center
05:22PM 33.9333 -84.4994 344° North 370 426 38,000  Level Atlanta Center
05:23PM 34.0228 -84.5275 345° North 365 420 38,000  Level Atlanta Center
05:24PM 34.1208 -84.5633 343° North 365 420 38,000  Level Atlanta Center
05:25PM 34.2356 -84.5967 346° North 370 426 38,000  Level Atlanta Center
05:26PM 34.3333 -84.6325 343° North 375 432 38,000  Level Atlanta Center
05:27PM 34.4333 -84.6683 344° North 375 432 38,000  Level Atlanta Center
05:28PM 34.5356 -84.7044 344° North 375 432 38,000  Level Atlanta Center
05:29PM 34.6356 -84.7406 343° North 375 432 38,000  Level Atlanta Center
05:30PM 34.7208 -84.7767 341° North 370 426 38,000  Level Atlanta Center
05:31PM 34.8208 -84.8106 344° North 370 426 38,000  Level Atlanta Center
05:32PM 34.9228 -84.8494 343° North 370 426 38,000  Level Atlanta Center
05:33PM 35.0247 -84.8833 345° North 370 426 38,000  Level Atlanta Center
05:34PM 35.1247 -84.9225 342° North 375 432 38,000  Level Atlanta Center
05:35PM 35.2244 -84.9592 343° North 375 432 38,000  Level Atlanta Center
05:36PM 35.3244 -85.0011 341° North 380 437 38,000  Level Atlanta Center
05:37PM 35.4264 -85.0353 345° North 380 437 38,000  Level Atlanta Center
05:38PM 35.5283 -85.0747 343° North 380 437 38,000  Level Atlanta Center
05:39PM 35.6303 -85.1092 345° North 375 432 38,000  Level Atlanta Center
05:40PM 35.7575 -85.1539 344° North 384 442 38,000  Level Memphis Center
05:42PM 35.9897 -85.2317 345° North 384 442 38,000  Level Indianapolis Center
05:44PM 36.0933 -85.2669 345° North 383 441 38,000  Level Indianapolis Center
05:45PM 36.1958 -85.3033 344° North 381 438 38,000  Level Indianapolis Center
05:46PM 36.2969 -85.3425 343° North 380 437 38,000  Level Indianapolis Center
05:47PM 36.3986 -85.3786 344° North 380 437 38,000  Level Indianapolis Center
05:48PM 36.5003 -85.4181 343° North 381 438 38,000  Level Indianapolis Center
05:49PM 36.6225 -85.4642 343° North 381 438 38,000  Level Indianapolis Center
05:50PM 36.7236 -85.5019 343° North 380 437 38,000  Level Indianapolis Center
05:51PM 36.8172 -85.5361 344° North 383 441 38,000  Level Indianapolis Center
05:52PM 36.9181 -85.5756 343° North 378 435 38,000  Level Indianapolis Center
05:53PM 37.0383 -85.6161 345° North 380 437 38,000  Level Indianapolis Center
05:54PM 37.1389 -85.6575 342° North 379 436 38,000  Level Indianapolis Center
05:55PM 37.2400 -85.6997 342° North 379 436 38,000  Level Indianapolis Center
05:56PM 37.3378 -85.7356 344° North 381 438 38,000  Level Indianapolis Center
05:57PM 37.4383 -85.7772 342° North 380 437 38,000  Level Indianapolis Center
05:58PM 37.5406 -85.8156 343° North 380 437 38,000  Level Indianapolis Center
05:59PM 37.6619 -85.8642 342° North 382 440 38,000  Level Indianapolis Center
06:00PM 37.7625 -85.9078 341° North 382 440 38,000  Level Indianapolis Center
06:01PM 37.8631 -85.9522 341° North 383 441 38,000 -300 Level Indianapolis Center
06:02PM 37.9633 -85.9944 342° North 380 437 37,500 -900 Descending Indianapolis Center
06:03PM 38.0714 -86.0431 340° North 405 466 36,200 -1,020 Descending Indianapolis Center
06:04PM 38.1794 -86.0897 341° North 409 471 35,400 -780 Descending Indianapolis Center
06:05PM 38.3125 -86.1361 345° North 414 476 34,600 -780 Descending Indianapolis Center
06:06PM 38.4231 -86.1814 342° North 418 481 33,900 -960 Descending Indianapolis Center
06:07PM 38.5367 -86.2181 346° North 420 483 32,700 -960 Descending Indianapolis Center
06:08PM 38.6458 -86.2583 344° North 412 474 32,000 -540 Descending Indianapolis Center
06:09PM 38.7564 -86.2975 345° North 410 472 31,600 -600 Descending Indianapolis Center
06:10PM 38.8653 -86.3503 339° North 417 480 30,800 -780 Descending Indianapolis Center
06:11PM 38.9789 -86.3975 342° North 412 474 30,000 -780 Descending Indianapolis Center
06:12PM 39.1081 -86.4542 341° North 410 472 29,300 -900 Descending Indianapolis Center
06:14PM 39.2200 -86.5014 342° North 421 484 28,200 -960 Descending Indianapolis Center
06:15PM 39.3317 -86.5486 342° North 422 486 27,400 -840 Descending Indianapolis Center
06:16PM 39.4414 -86.5978 341° North 417 480 26,500 -720 Descending Indianapolis Center
06:17PM 39.5525 -86.6425 343° North 415 478 26,000 -300 Descending Indianapolis Center
06:18PM 39.6586 -86.6875 342° North 402 463 26,000  Level Indianapolis Center
06:19PM 39.7633 -86.7325 342° North 395 455 26,000  Level Indianapolis Center
06:20PM 39.8672 -86.7772 342° North 393 452 26,000 -240 Level Indianapolis Center
06:21PM 39.9925 -86.8339 341° North 393 452 25,600 -840 Descending Indianapolis Center
06:22PM 40.1011 -86.8769 343° North 405 466 24,300 -1,320 Descending Indianapolis Center
06:22PM 40.1458 -86.8997 339° North 410 472 23,700 -1,740 Descending Chicago Center
06:23PM 40.2503 -86.9447 342° North 398 458 21,800 -1,980 Descending Chicago Center
06:24PM 40.3497 -86.9917 340° North 383 441 19,700 -2,160 Descending Chicago Center
06:25PM 40.4689 -87.0450 341° North 378 435 17,400 -1,740 Descending Chicago Center
06:26PM 40.5592 -87.0881 340° North 349 402 16,200 -1,200 Descending Chicago Center
06:27PM 40.6447 -87.1281 340° North 338 389 15,000 -1,140 Descending Chicago Center
06:28PM 40.7314 -87.1761 337° Northwest 338 389 13,900 -1,140 Descending Chicago Center
06:29PM 40.8175 -87.2214 338° Northwest 334 384 12,700 -1,260 Descending Chicago Center
06:31PM 40.9103 -87.2764 336° Northwest 308 354 11,300 -1,320 Descending Chicago Center
06:32PM 40.9856 -87.3139 339° North 293 337 10,000 -660 Descending Chicago Center
06:33PM 41.0342 -87.3906 310° West 269 310 10,000 -360 Level Chicago Center
06:34PM 41.0844 -87.4731 309° West 283 326 9,300 -840 Descending Chicago Center
06:35PM 41.1325 -87.5544 308° West 284 327 8,300 -660 Descending Chicago Center
06:36PM 41.1872 -87.6575 305° West 284 327 8,000 -180 Descending Chicago Center
06:37PM 41.2222 -87.7531 296° West 289 333 8,000  Level Chicago Center
06:38PM 41.2589 -87.8433 298° West 280 322 8,000 -300 Level Chicago Center
06:39PM 41.2956 -87.9389 297° West 289 333 7,400 -1,260 Descending Chicago Center
06:40PM 41.3383 -88.0317 302° West 298 343 5,500 -1,680 Descending Chicago Center
06:41PM 41.3931 -88.1108 313° West 288 331 4,000 -780 Descending Chicago Center
06:42PM 41.4442 -88.1914 310° West 283 326 4,000  Level Chicago Center
06:43PM 41.5053 -88.2858 311° West 280 322 4,000  Level Chicago Center
06:44PM 41.5572 -88.3517 317° Northwest 273 314 4,000 -540 Level Chicago Center
06:45PM 41.6308 -88.3586 356° North 270 311 3,000 -540 Descending Chicago Center
06:46PM 41.6883 -88.3214 26° Northeast 239 275 3,000  Level Chicago Center
06:47PM 41.7500 -88.3014 14° North 229 264 3,000 -540 Level Chicago Center
06:49PM 41.8631 -88.2650 13° North 171 197 1,400 -660 Descending Chicago Center
06:50PM 41.8889 -88.2564 14° North 145 167 1,000 -420 Descending Chicago Center